sensor_id;sensor_type;location;lat;lon;timestamp;P1;durP1;ratioP1;P2;durP2;ratioP2
77022;SDS011;65952;51.440;-2.054;2023-06-22T00:31:01;12.10;;;6.65;;
77022;SDS011;65952;51.440;-2.054;2023-06-22T00:33:26;12.73;;;7.05;;
77022;SDS011;65952;51.440;-2.054;2023-06-22T00:35:53;13.43;;;6.38;;
77022;SDS011;65952;51.440;-2.054;2023-06-22T00:38:18;14.68;;;7.32;;
77022;SDS011;65952;51.440;-2.054;2023-06-22T00:40:44;17.15;;;7.03;;
77022;SDS011;65952;51.440;-2.054;2023-06-22T00:43:10;14.82;;;7.50;;
77022;SDS011;65952;51.440;-2.054;2023-06-22T00:45:35;14.70;;;7.45;;
77022;SDS011;65952;51.440;-2.054;2023-06-22T00:48:01;16.85;;;8.30;;
77022;SDS011;65952;51.440;-2.054;2023-06-22T00:50:28;15.50;;;7.25;;
77022;SDS011;65952;51.440;-2.054;2023-06-22T00:53:03;14.50;;;8.00;;
77022;SDS011;65952;51.440;-2.054;2023-06-22T00:55:38;14.85;;;6.75;;
77022;SDS011;65952;51.440;-2.054;2023-06-22T00:58:08;17.30;;;7.45;;
77022;SDS011;65952;51.440;-2.054;2023-06-22T01:00:35;15.23;;;6.85;;
77022;SDS011;65952;51.440;-2.054;2023-06-22T01:03:02;15.73;;;7.63;;
77022;SDS011;65952;51.440;-2.054;2023-06-22T01:05:28;16.25;;;7.63;;
77022;SDS011;65952;51.440;-2.054;2023-06-22T01:16:31;18.50;;;7.70;;
77022;SDS011;65952;51.440;-2.054;2023-06-22T01:22:01;16.90;;;7.32;;
77022;SDS011;65952;51.440;-2.054;2023-06-22T01:29:51;18.50;;;7.65;;
77022;SDS011;65952;51.440;-2.054;2023-06-22T01:32:27;15.43;;;8.55;;
77022;SDS011;65952;51.440;-2.054;2023-06-22T01:34:55;15.52;;;7.57;;
77022;SDS011;65952;51.440;-2.054;2023-06-22T01:37:22;15.68;;;7.07;;
77022;SDS011;65952;51.440;-2.054;2023-06-22T01:39:48;18.65;;;8.43;;
77022;SDS011;65952;51.440;-2.054;2023-06-22T01:42:14;17.23;;;8.05;;
77022;SDS011;65952;51.440;-2.054;2023-06-22T01:44:40;17.88;;;8.95;;
77022;SDS011;65952;51.440;-2.054;2023-06-22T01:47:05;15.27;;;7.25;;
77022;SDS011;65952;51.440;-2.054;2023-06-22T01:49:32;19.80;;;8.15;;
77022;SDS011;65952;51.440;-2.054;2023-06-22T01:51:57;16.95;;;8.00;;
77022;SDS011;65952;51.440;-2.054;2023-06-22T01:54:23;17.65;;;9.00;;
77022;SDS011;65952;51.440;-2.054;2023-06-22T01:56:48;18.58;;;8.60;;
77022;SDS011;65952;51.440;-2.054;2023-06-22T01:59:19;16.00;;;7.75;;
77022;SDS011;65952;51.440;-2.054;2023-06-22T02:02:01;17.05;;;8.02;;
77022;SDS011;65952;51.440;-2.054;2023-06-22T02:04:34;21.60;;;9.20;;
77022;SDS011;65952;51.440;-2.054;2023-06-22T02:07:03;21.03;;;9.30;;
77022;SDS011;65952;51.440;-2.054;2023-06-22T02:09:34;18.60;;;9.75;;
77022;SDS011;65952;51.440;-2.054;2023-06-22T02:12:02;19.77;;;9.60;;
77022;SDS011;65952;51.440;-2.054;2023-06-22T02:14:29;18.48;;;8.65;;
77022;SDS011;65952;51.440;-2.054;2023-06-22T02:16:55;20.05;;;8.43;;
77022;SDS011;65952;51.440;-2.054;2023-06-22T02:19:24;17.67;;;8.07;;
77022;SDS011;65952;51.440;-2.054;2023-06-22T02:21:50;18.48;;;7.53;;
77022;SDS011;65952;51.440;-2.054;2023-06-22T02:24:16;17.35;;;8.38;;
77022;SDS011;65952;51.440;-2.054;2023-06-22T02:26:42;19.23;;;8.60;;
77022;SDS011;65952;51.440;-2.054;2023-06-22T02:29:09;20.90;;;8.55;;
77022;SDS011;65952;51.440;-2.054;2023-06-22T02:31:34;17.70;;;8.25;;
77022;SDS011;65952;51.440;-2.054;2023-06-22T02:34:00;16.35;;;8.52;;
77022;SDS011;65952;51.440;-2.054;2023-06-22T02:36:25;18.27;;;9.10;;
77022;SDS011;65952;51.440;-2.054;2023-06-22T02:38:52;19.23;;;8.40;;
77022;SDS011;65952;51.440;-2.054;2023-06-22T02:41:19;18.52;;;8.95;;
77022;SDS011;65952;51.440;-2.054;2023-06-22T02:43:45;18.52;;;9.15;;
77022;SDS011;65952;51.440;-2.054;2023-06-22T02:46:11;16.17;;;8.65;;
77022;SDS011;65952;51.440;-2.054;2023-06-22T02:48:37;16.02;;;8.25;;
77022;SDS011;65952;51.440;-2.054;2023-06-22T02:51:03;17.02;;;8.15;;
77022;SDS011;65952;51.440;-2.054;2023-06-22T02:53:28;20.15;;;8.35;;
77022;SDS011;65952;51.440;-2.054;2023-06-22T02:55:55;16.58;;;8.40;;
77022;SDS011;65952;51.440;-2.054;2023-06-22T02:58:20;16.83;;;8.85;;
77022;SDS011;65952;51.440;-2.054;2023-06-22T03:00:46;17.75;;;9.02;;
77022;SDS011;65952;51.440;-2.054;2023-06-22T03:03:11;20.00;;;8.85;;
77022;SDS011;65952;51.440;-2.054;2023-06-22T03:05:37;19.02;;;8.77;;
77022;SDS011;65952;51.440;-2.054;2023-06-22T03:08:02;17.88;;;9.18;;
77022;SDS011;65952;51.440;-2.054;2023-06-22T03:10:28;18.73;;;8.85;;
77022;SDS011;65952;51.440;-2.054;2023-06-22T03:12:54;21.60;;;9.40;;
77022;SDS011;65952;51.440;-2.054;2023-06-22T03:15:19;17.08;;;8.90;;
77022;SDS011;65952;51.440;-2.054;2023-06-22T03:17:45;17.60;;;8.35;;
77022;SDS011;65952;51.440;-2.054;2023-06-22T03:20:11;18.67;;;8.85;;
77022;SDS011;65952;51.440;-2.054;2023-06-22T03:22:40;20.23;;;8.70;;
77022;SDS011;65952;51.440;-2.054;2023-06-22T03:25:08;20.67;;;9.43;;
77022;SDS011;65952;51.440;-2.054;2023-06-22T03:27:41;18.80;;;8.95;;
77022;SDS011;65952;51.440;-2.054;2023-06-22T03:30:08;19.33;;;9.55;;
77022;SDS011;65952;51.440;-2.054;2023-06-22T03:32:35;19.50;;;9.40;;
77022;SDS011;65952;51.440;-2.054;2023-06-22T03:35:01;20.15;;;9.57;;
77022;SDS011;65952;51.440;-2.054;2023-06-22T03:37:27;20.67;;;9.27;;
77022;SDS011;65952;51.440;-2.054;2023-06-22T03:39:54;18.40;;;8.82;;
77022;SDS011;65952;51.440;-2.054;2023-06-22T03:42:19;18.60;;;9.50;;
77022;SDS011;65952;51.440;-2.054;2023-06-22T03:44:45;16.85;;;8.48;;
77022;SDS011;65952;51.440;-2.054;2023-06-22T03:47:10;17.67;;;8.82;;
77022;SDS011;65952;51.440;-2.054;2023-06-22T03:49:36;21.92;;;8.63;;
77022;SDS011;65952;51.440;-2.054;2023-06-22T03:52:02;17.83;;;9.23;;
77022;SDS011;65952;51.440;-2.054;2023-06-22T03:54:28;20.15;;;8.75;;
77022;SDS011;65952;51.440;-2.054;2023-06-22T03:56:56;20.08;;;9.35;;
77022;SDS011;65952;51.440;-2.054;2023-06-22T03:59:21;18.45;;;8.43;;
77022;SDS011;65952;51.440;-2.054;2023-06-22T04:01:47;15.98;;;8.10;;
77022;SDS011;65952;51.440;-2.054;2023-06-22T04:04:12;15.73;;;8.07;;
77022;SDS011;65952;51.440;-2.054;2023-06-22T04:06:38;18.05;;;7.75;;
77022;SDS011;65952;51.440;-2.054;2023-06-22T04:09:03;16.27;;;8.60;;
77022;SDS011;65952;51.440;-2.054;2023-06-22T04:11:29;16.20;;;8.07;;
77022;SDS011;65952;51.440;-2.054;2023-06-22T04:13:54;16.92;;;8.02;;
77022;SDS011;65952;51.440;-2.054;2023-06-22T04:16:20;16.63;;;8.27;;
77022;SDS011;65952;51.440;-2.054;2023-06-22T04:18:45;17.00;;;7.45;;
77022;SDS011;65952;51.440;-2.054;2023-06-22T04:21:11;15.18;;;8.38;;
77022;SDS011;65952;51.440;-2.054;2023-06-22T04:23:36;17.20;;;7.50;;
77022;SDS011;65952;51.440;-2.054;2023-06-22T04:26:02;20.17;;;8.18;;
77022;SDS011;65952;51.440;-2.054;2023-06-22T04:28:27;18.23;;;8.48;;
77022;SDS011;65952;51.440;-2.054;2023-06-22T04:30:52;18.73;;;9.10;;
77022;SDS011;65952;51.440;-2.054;2023-06-22T04:33:22;16.50;;;7.90;;
77022;SDS011;65952;51.440;-2.054;2023-06-22T04:35:47;16.45;;;8.40;;
77022;SDS011;65952;51.440;-2.054;2023-06-22T04:38:13;17.48;;;8.80;;
77022;SDS011;65952;51.440;-2.054;2023-06-22T04:40:39;20.33;;;8.27;;
77022;SDS011;65952;51.440;-2.054;2023-06-22T04:43:04;18.55;;;9.50;;
77022;SDS011;65952;51.440;-2.054;2023-06-22T04:45:31;19.50;;;9.23;;
77022;SDS011;65952;51.440;-2.054;2023-06-22T04:47:57;19.73;;;8.32;;
77022;SDS011;65952;51.440;-2.054;2023-06-22T04:50:23;21.13;;;9.40;;
77022;SDS011;65952;51.440;-2.054;2023-06-22T04:52:48;19.45;;;8.73;;
77022;SDS011;65952;51.440;-2.054;2023-06-22T04:55:15;17.08;;;8.45;;
77022;SDS011;65952;51.440;-2.054;2023-06-22T04:57:45;21.05;;;9.25;;
77022;SDS011;65952;51.440;-2.054;2023-06-22T05:00:13;17.17;;;8.25;;
77022;SDS011;65952;51.440;-2.054;2023-06-22T05:02:47;21.17;;;9.13;;
77022;SDS011;65952;51.440;-2.054;2023-06-22T05:05:13;20.48;;;8.32;;
77022;SDS011;65952;51.440;-2.054;2023-06-22T05:07:42;18.75;;;9.20;;
77022;SDS011;65952;51.440;-2.054;2023-06-22T05:10:09;17.55;;;8.70;;
77022;SDS011;65952;51.440;-2.054;2023-06-22T05:12:38;14.25;;;7.57;;
77022;SDS011;65952;51.440;-2.054;2023-06-22T05:15:05;14.98;;;7.60;;
77022;SDS011;65952;51.440;-2.054;2023-06-22T05:17:31;17.50;;;8.13;;
77022;SDS011;65952;51.440;-2.054;2023-06-22T05:19:57;18.50;;;8.18;;
77022;SDS011;65952;51.440;-2.054;2023-06-22T05:22:22;16.27;;;7.90;;
77022;SDS011;65952;51.440;-2.054;2023-06-22T05:24:48;14.90;;;7.18;;
77022;SDS011;65952;51.440;-2.054;2023-06-22T05:27:13;17.10;;;7.85;;
77022;SDS011;65952;51.440;-2.054;2023-06-22T05:29:42;14.93;;;6.97;;
77022;SDS011;65952;51.440;-2.054;2023-06-22T05:32:07;17.42;;;7.88;;
77022;SDS011;65952;51.440;-2.054;2023-06-22T05:34:33;14.20;;;7.05;;
77022;SDS011;65952;51.440;-2.054;2023-06-22T05:36:58;17.85;;;8.40;;
77022;SDS011;65952;51.440;-2.054;2023-06-22T05:39:24;15.88;;;8.07;;
77022;SDS011;65952;51.440;-2.054;2023-06-22T05:41:50;16.23;;;7.22;;
77022;SDS011;65952;51.440;-2.054;2023-06-22T05:44:15;15.07;;;7.60;;
77022;SDS011;65952;51.440;-2.054;2023-06-22T05:46:41;16.83;;;7.88;;
77022;SDS011;65952;51.440;-2.054;2023-06-22T05:49:12;15.25;;;7.78;;
77022;SDS011;65952;51.440;-2.054;2023-06-22T05:51:38;14.52;;;6.80;;
77022;SDS011;65952;51.440;-2.054;2023-06-22T05:54:03;16.75;;;7.35;;
77022;SDS011;65952;51.440;-2.054;2023-06-22T05:56:29;13.07;;;7.30;;
77022;SDS011;65952;51.440;-2.054;2023-06-22T05:58:54;16.05;;;7.75;;
77022;SDS011;65952;51.440;-2.054;2023-06-22T06:01:20;12.60;;;7.18;;
77022;SDS011;65952;51.440;-2.054;2023-06-22T06:03:45;13.25;;;7.05;;
77022;SDS011;65952;51.440;-2.054;2023-06-22T06:06:11;15.77;;;7.13;;
77022;SDS011;65952;51.440;-2.054;2023-06-22T06:08:37;13.88;;;6.78;;
77022;SDS011;65952;51.440;-2.054;2023-06-22T06:11:03;17.58;;;6.97;;
77022;SDS011;65952;51.440;-2.054;2023-06-22T06:13:28;13.85;;;6.97;;
77022;SDS011;65952;51.440;-2.054;2023-06-22T06:15:54;12.23;;;6.47;;
77022;SDS011;65952;51.440;-2.054;2023-06-22T06:18:22;15.52;;;6.68;;
77022;SDS011;65952;51.440;-2.054;2023-06-22T06:20:48;13.50;;;6.63;;
77022;SDS011;65952;51.440;-2.054;2023-06-22T06:23:14;12.90;;;6.60;;
77022;SDS011;65952;51.440;-2.054;2023-06-22T06:25:39;12.93;;;6.88;;
77022;SDS011;65952;51.440;-2.054;2023-06-22T06:28:05;11.15;;;6.22;;
77022;SDS011;65952;51.440;-2.054;2023-06-22T06:30:30;9.85;;;5.68;;
77022;SDS011;65952;51.440;-2.054;2023-06-22T06:32:56;10.35;;;5.85;;
77022;SDS011;65952;51.440;-2.054;2023-06-22T06:35:21;10.48;;;5.93;;
77022;SDS011;65952;51.440;-2.054;2023-06-22T06:37:48;10.10;;;5.80;;
77022;SDS011;65952;51.440;-2.054;2023-06-22T06:40:14;10.70;;;5.95;;
77022;SDS011;65952;51.440;-2.054;2023-06-22T06:42:41;9.57;;;5.30;;
77022;SDS011;65952;51.440;-2.054;2023-06-22T06:45:11;10.23;;;5.05;;
77022;SDS011;65952;51.440;-2.054;2023-06-22T06:47:47;10.35;;;5.47;;
77022;SDS011;65952;51.440;-2.054;2023-06-22T06:53:36;10.25;;;5.43;;
77022;SDS011;65952;51.440;-2.054;2023-06-22T06:56:03;8.90;;;5.50;;
77022;SDS011;65952;51.440;-2.054;2023-06-22T06:58:30;9.73;;;5.35;;
77022;SDS011;65952;51.440;-2.054;2023-06-22T07:00:56;8.25;;;4.85;;
77022;SDS011;65952;51.440;-2.054;2023-06-22T07:03:21;9.43;;;5.60;;
77022;SDS011;65952;51.440;-2.054;2023-06-22T07:05:46;9.20;;;5.10;;
77022;SDS011;65952;51.440;-2.054;2023-06-22T07:08:12;9.63;;;5.63;;
77022;SDS011;65952;51.440;-2.054;2023-06-22T07:10:37;8.15;;;5.15;;
77022;SDS011;65952;51.440;-2.054;2023-06-22T07:13:03;8.18;;;5.10;;
77022;SDS011;65952;51.440;-2.054;2023-06-22T07:15:28;7.95;;;5.28;;
77022;SDS011;65952;51.440;-2.054;2023-06-22T07:17:53;9.95;;;4.97;;
77022;SDS011;65952;51.440;-2.054;2023-06-22T07:20:19;7.72;;;5.28;;
77022;SDS011;65952;51.440;-2.054;2023-06-22T07:22:44;8.45;;;5.18;;
77022;SDS011;65952;51.440;-2.054;2023-06-22T07:25:10;8.35;;;5.05;;
77022;SDS011;65952;51.440;-2.054;2023-06-22T07:27:44;9.10;;;5.25;;
77022;SDS011;65952;51.440;-2.054;2023-06-22T07:30:11;8.15;;;4.97;;
77022;SDS011;65952;51.440;-2.054;2023-06-22T07:32:37;8.65;;;4.97;;
77022;SDS011;65952;51.440;-2.054;2023-06-22T07:35:03;8.32;;;5.20;;
77022;SDS011;65952;51.440;-2.054;2023-06-22T07:37:29;7.72;;;4.65;;
77022;SDS011;65952;51.440;-2.054;2023-06-22T07:39:55;7.70;;;4.70;;
77022;SDS011;65952;51.440;-2.054;2023-06-22T07:42:24;7.55;;;4.80;;
77022;SDS011;65952;51.440;-2.054;2023-06-22T07:44:50;8.43;;;4.68;;
77022;SDS011;65952;51.440;-2.054;2023-06-22T07:47:16;8.77;;;5.32;;
77022;SDS011;65952;51.440;-2.054;2023-06-22T07:49:44;7.63;;;5.10;;
77022;SDS011;65952;51.440;-2.054;2023-06-22T07:52:10;9.35;;;5.05;;
77022;SDS011;65952;51.440;-2.054;2023-06-22T07:54:36;9.35;;;5.18;;
77022;SDS011;65952;51.440;-2.054;2023-06-22T07:57:02;7.88;;;5.20;;
77022;SDS011;65952;51.440;-2.054;2023-06-22T07:59:27;6.93;;;4.32;;
77022;SDS011;65952;51.440;-2.054;2023-06-22T08:01:53;8.07;;;4.72;;
77022;SDS011;65952;51.440;-2.054;2023-06-22T08:04:19;8.25;;;4.93;;
77022;SDS011;65952;51.440;-2.054;2023-06-22T08:06:45;7.97;;;5.03;;
77022;SDS011;65952;51.440;-2.054;2023-06-22T08:09:10;8.60;;;4.90;;
77022;SDS011;65952;51.440;-2.054;2023-06-22T08:11:36;7.80;;;5.03;;
77022;SDS011;65952;51.440;-2.054;2023-06-22T08:14:01;8.18;;;5.03;;
77022;SDS011;65952;51.440;-2.054;2023-06-22T08:16:26;7.97;;;4.90;;
77022;SDS011;65952;51.440;-2.054;2023-06-22T08:18:52;8.93;;;5.28;;
77022;SDS011;65952;51.440;-2.054;2023-06-22T08:21:17;8.20;;;5.10;;
77022;SDS011;65952;51.440;-2.054;2023-06-22T08:23:43;10.27;;;4.95;;
77022;SDS011;65952;51.440;-2.054;2023-06-22T08:26:08;8.77;;;5.25;;
77022;SDS011;65952;51.440;-2.054;2023-06-22T08:28:33;9.38;;;5.38;;
77022;SDS011;65952;51.440;-2.054;2023-06-22T08:30:59;7.50;;;4.70;;
77022;SDS011;65952;51.440;-2.054;2023-06-22T08:33:28;6.72;;;4.38;;
77022;SDS011;65952;51.440;-2.054;2023-06-22T08:35:54;7.82;;;4.78;;
77022;SDS011;65952;51.440;-2.054;2023-06-22T08:38:20;7.38;;;4.43;;
77022;SDS011;65952;51.440;-2.054;2023-06-22T08:40:45;8.57;;;5.35;;
77022;SDS011;65952;51.440;-2.054;2023-06-22T08:43:11;7.30;;;5.00;;
77022;SDS011;65952;51.440;-2.054;2023-06-22T08:45:36;7.70;;;4.80;;
77022;SDS011;65952;51.440;-2.054;2023-06-22T08:48:02;7.22;;;4.72;;
77022;SDS011;65952;51.440;-2.054;2023-06-22T08:50:27;7.63;;;4.55;;
77022;SDS011;65952;51.440;-2.054;2023-06-22T08:52:53;7.25;;;4.30;;
77022;SDS011;65952;51.440;-2.054;2023-06-22T08:55:18;9.20;;;4.80;;
77022;SDS011;65952;51.440;-2.054;2023-06-22T08:57:43;6.72;;;4.68;;
77022;SDS011;65952;51.440;-2.054;2023-06-22T09:00:09;9.40;;;5.30;;
77022;SDS011;65952;51.440;-2.054;2023-06-22T09:02:45;8.30;;;4.80;;
77022;SDS011;65952;51.440;-2.054;2023-06-22T09:05:12;7.50;;;4.20;;
77022;SDS011;65952;51.440;-2.054;2023-06-22T09:07:37;7.78;;;4.55;;
77022;SDS011;65952;51.440;-2.054;2023-06-22T09:10:03;7.63;;;4.63;;
77022;SDS011;65952;51.440;-2.054;2023-06-22T09:12:32;8.82;;;4.70;;
77022;SDS011;65952;51.440;-2.054;2023-06-22T09:15:01;8.35;;;4.65;;
77022;SDS011;65952;51.440;-2.054;2023-06-22T09:17:27;7.35;;;4.18;;
77022;SDS011;65952;51.440;-2.054;2023-06-22T09:19:53;5.85;;;3.50;;
77022;SDS011;65952;51.440;-2.054;2023-06-22T09:22:18;9.45;;;4.25;;
77022;SDS011;65952;51.440;-2.054;2023-06-22T09:24:44;6.30;;;3.42;;
77022;SDS011;65952;51.440;-2.054;2023-06-22T09:27:09;6.40;;;3.65;;
77022;SDS011;65952;51.440;-2.054;2023-06-22T09:29:35;7.03;;;3.55;;
77022;SDS011;65952;51.440;-2.054;2023-06-22T09:32:00;6.35;;;3.75;;
77022;SDS011;65952;51.440;-2.054;2023-06-22T09:34:26;5.53;;;3.28;;
77022;SDS011;65952;51.440;-2.054;2023-06-22T09:36:52;5.78;;;3.40;;
77022;SDS011;65952;51.440;-2.054;2023-06-22T09:39:17;5.45;;;3.40;;
77022;SDS011;65952;51.440;-2.054;2023-06-22T09:41:43;6.57;;;3.90;;
77022;SDS011;65952;51.440;-2.054;2023-06-22T09:44:09;7.38;;;3.50;;
77022;SDS011;65952;51.440;-2.054;2023-06-22T09:46:34;5.68;;;3.25;;
77022;SDS011;65952;51.440;-2.054;2023-06-22T09:49:00;5.35;;;3.47;;
77022;SDS011;65952;51.440;-2.054;2023-06-22T09:51:25;6.50;;;3.38;;
77022;SDS011;65952;51.440;-2.054;2023-06-22T09:53:51;6.00;;;2.70;;
77022;SDS011;65952;51.440;-2.054;2023-06-22T09:56:18;5.97;;;3.17;;
77022;SDS011;65952;51.440;-2.054;2023-06-22T09:58:45;6.00;;;3.55;;
77022;SDS011;65952;51.440;-2.054;2023-06-22T10:01:17;8.52;;;3.40;;
77022;SDS011;65952;51.440;-2.054;2023-06-22T10:03:43;7.35;;;3.65;;
77022;SDS011;65952;51.440;-2.054;2023-06-22T10:06:08;6.10;;;2.90;;
77022;SDS011;65952;51.440;-2.054;2023-06-22T10:08:34;5.30;;;3.03;;
77022;SDS011;65952;51.440;-2.054;2023-06-22T10:11:00;5.55;;;3.20;;
77022;SDS011;65952;51.440;-2.054;2023-06-22T10:13:26;4.57;;;2.85;;
77022;SDS011;65952;51.440;-2.054;2023-06-22T10:15:51;6.32;;;3.20;;
77022;SDS011;65952;51.440;-2.054;2023-06-22T10:18:18;6.07;;;3.05;;
77022;SDS011;65952;51.440;-2.054;2023-06-22T10:20:44;7.32;;;3.50;;
77022;SDS011;65952;51.440;-2.054;2023-06-22T10:23:12;7.65;;;3.00;;
77022;SDS011;65952;51.440;-2.054;2023-06-22T10:25:37;5.40;;;3.15;;
77022;SDS011;65952;51.440;-2.054;2023-06-22T10:28:03;5.65;;;3.03;;
77022;SDS011;65952;51.440;-2.054;2023-06-22T10:30:28;7.80;;;3.50;;
77022;SDS011;65952;51.440;-2.054;2023-06-22T10:32:54;5.38;;;3.28;;
77022;SDS011;65952;51.440;-2.054;2023-06-22T10:35:19;6.88;;;3.42;;
77022;SDS011;65952;51.440;-2.054;2023-06-22T10:37:45;7.00;;;3.30;;
77022;SDS011;65952;51.440;-2.054;2023-06-22T10:40:12;6.03;;;3.35;;
77022;SDS011;65952;51.440;-2.054;2023-06-22T10:42:38;7.03;;;3.67;;
77022;SDS011;65952;51.440;-2.054;2023-06-22T10:45:04;6.28;;;3.58;;
77022;SDS011;65952;51.440;-2.054;2023-06-22T10:47:30;7.05;;;3.33;;
77022;SDS011;65952;51.440;-2.054;2023-06-22T10:49:55;5.75;;;3.00;;
77022;SDS011;65952;51.440;-2.054;2023-06-22T10:52:21;5.32;;;2.90;;
77022;SDS011;65952;51.440;-2.054;2023-06-22T10:54:46;5.57;;;3.17;;
77022;SDS011;65952;51.440;-2.054;2023-06-22T10:57:11;7.22;;;3.17;;
77022;SDS011;65952;51.440;-2.054;2023-06-22T10:59:37;6.35;;;3.20;;
77022;SDS011;65952;51.440;-2.054;2023-06-22T11:02:02;5.13;;;3.25;;
77022;SDS011;65952;51.440;-2.054;2023-06-22T11:04:28;5.88;;;3.13;;
77022;SDS011;65952;51.440;-2.054;2023-06-22T11:06:53;7.57;;;3.10;;
77022;SDS011;65952;51.440;-2.054;2023-06-22T11:09:19;7.07;;;3.40;;
77022;SDS011;65952;51.440;-2.054;2023-06-22T11:11:46;6.55;;;3.60;;
77022;SDS011;65952;51.440;-2.054;2023-06-22T11:14:13;6.68;;;3.17;;
77022;SDS011;65952;51.440;-2.054;2023-06-22T11:16:38;5.72;;;3.47;;
77022;SDS011;65952;51.440;-2.054;2023-06-22T11:19:04;5.97;;;3.45;;
77022;SDS011;65952;51.440;-2.054;2023-06-22T11:21:30;7.30;;;3.10;;
77022;SDS011;65952;51.440;-2.054;2023-06-22T11:23:56;6.95;;;3.50;;
77022;SDS011;65952;51.440;-2.054;2023-06-22T11:26:22;6.70;;;3.40;;
77022;SDS011;65952;51.440;-2.054;2023-06-22T11:28:47;6.43;;;3.10;;
77022;SDS011;65952;51.440;-2.054;2023-06-22T11:31:13;10.57;;;4.00;;
77022;SDS011;65952;51.440;-2.054;2023-06-22T11:33:39;5.70;;;3.30;;
77022;SDS011;65952;51.440;-2.054;2023-06-22T11:36:05;4.93;;;2.80;;
77022;SDS011;65952;51.440;-2.054;2023-06-22T11:38:30;5.00;;;3.10;;
77022;SDS011;65952;51.440;-2.054;2023-06-22T11:40:57;6.78;;;3.20;;
77022;SDS011;65952;51.440;-2.054;2023-06-22T11:43:23;5.38;;;3.10;;
77022;SDS011;65952;51.440;-2.054;2023-06-22T11:45:49;5.85;;;3.28;;
77022;SDS011;65952;51.440;-2.054;2023-06-22T11:48:14;8.45;;;3.55;;
77022;SDS011;65952;51.440;-2.054;2023-06-22T11:50:39;5.72;;;3.40;;
77022;SDS011;65952;51.440;-2.054;2023-06-22T11:53:05;6.72;;;3.15;;
77022;SDS011;65952;51.440;-2.054;2023-06-22T11:55:30;5.90;;;3.00;;
77022;SDS011;65952;51.440;-2.054;2023-06-22T11:57:56;8.23;;;3.10;;
77022;SDS011;65952;51.440;-2.054;2023-06-22T12:00:28;5.13;;;2.78;;
77022;SDS011;65952;51.440;-2.054;2023-06-22T12:02:54;7.32;;;3.42;;
77022;SDS011;65952;51.440;-2.054;2023-06-22T12:05:21;7.05;;;3.50;;
77022;SDS011;65952;51.440;-2.054;2023-06-22T12:07:47;8.70;;;3.50;;
77022;SDS011;65952;51.440;-2.054;2023-06-22T12:10:13;6.35;;;3.13;;
77022;SDS011;65952;51.440;-2.054;2023-06-22T12:12:39;6.75;;;3.60;;
77022;SDS011;65952;51.440;-2.054;2023-06-22T12:15:05;7.13;;;2.80;;
77022;SDS011;65952;51.440;-2.054;2023-06-22T12:17:31;5.90;;;3.13;;
77022;SDS011;65952;51.440;-2.054;2023-06-22T12:19:56;6.07;;;2.85;;
77022;SDS011;65952;51.440;-2.054;2023-06-22T12:22:21;5.18;;;2.83;;
77022;SDS011;65952;51.440;-2.054;2023-06-22T12:24:47;5.85;;;3.08;;
77022;SDS011;65952;51.440;-2.054;2023-06-22T12:27:12;4.75;;;2.50;;
77022;SDS011;65952;51.440;-2.054;2023-06-22T12:29:41;5.30;;;3.10;;
77022;SDS011;65952;51.440;-2.054;2023-06-22T12:32:07;6.70;;;3.13;;
77022;SDS011;65952;51.440;-2.054;2023-06-22T12:34:32;6.72;;;3.00;;
77022;SDS011;65952;51.440;-2.054;2023-06-22T12:36:58;7.50;;;2.90;;
77022;SDS011;65952;51.440;-2.054;2023-06-22T12:39:23;5.88;;;3.10;;
77022;SDS011;65952;51.440;-2.054;2023-06-22T12:41:49;5.18;;;3.13;;
77022;SDS011;65952;51.440;-2.054;2023-06-22T12:44:14;6.18;;;3.15;;
77022;SDS011;65952;51.440;-2.054;2023-06-22T12:46:39;4.88;;;2.90;;
77022;SDS011;65952;51.440;-2.054;2023-06-22T12:49:05;5.28;;;2.90;;
77022;SDS011;65952;51.440;-2.054;2023-06-22T12:51:30;6.15;;;3.00;;
77022;SDS011;65952;51.440;-2.054;2023-06-22T12:53:56;5.40;;;2.65;;
77022;SDS011;65952;51.440;-2.054;2023-06-22T12:56:22;4.57;;;2.70;;
77022;SDS011;65952;51.440;-2.054;2023-06-22T12:58:47;5.30;;;2.83;;
77022;SDS011;65952;51.440;-2.054;2023-06-22T13:01:13;6.07;;;2.90;;
77022;SDS011;65952;51.440;-2.054;2023-06-22T13:03:38;5.55;;;2.90;;
77022;SDS011;65952;51.440;-2.054;2023-06-22T13:06:04;6.60;;;2.88;;
77022;SDS011;65952;51.440;-2.054;2023-06-22T13:08:29;4.65;;;2.63;;
77022;SDS011;65952;51.440;-2.054;2023-06-22T13:10:55;5.13;;;2.70;;
77022;SDS011;65952;51.440;-2.054;2023-06-22T13:13:23;5.07;;;2.63;;
77022;SDS011;65952;51.440;-2.054;2023-06-22T13:15:52;5.10;;;2.80;;
77022;SDS011;65952;51.440;-2.054;2023-06-22T13:18:17;5.30;;;2.67;;
77022;SDS011;65952;51.440;-2.054;2023-06-22T13:20:43;4.97;;;2.80;;
77022;SDS011;65952;51.440;-2.054;2023-06-22T13:23:10;5.70;;;2.92;;
77022;SDS011;65952;51.440;-2.054;2023-06-22T13:25:36;4.95;;;2.60;;
77022;SDS011;65952;51.440;-2.054;2023-06-22T13:28:01;6.65;;;3.13;;
77022;SDS011;65952;51.440;-2.054;2023-06-22T13:30:27;4.88;;;2.72;;
77022;SDS011;65952;51.440;-2.054;2023-06-22T13:32:52;5.10;;;2.53;;
77022;SDS011;65952;51.440;-2.054;2023-06-22T13:35:18;4.70;;;2.90;;
77022;SDS011;65952;51.440;-2.054;2023-06-22T13:37:43;4.50;;;2.72;;
77022;SDS011;65952;51.440;-2.054;2023-06-22T13:40:09;6.05;;;2.90;;
77022;SDS011;65952;51.440;-2.054;2023-06-22T13:42:35;4.80;;;2.70;;
77022;SDS011;65952;51.440;-2.054;2023-06-22T13:45:02;6.50;;;3.13;;
77022;SDS011;65952;51.440;-2.054;2023-06-22T13:47:28;4.90;;;2.80;;
77022;SDS011;65952;51.440;-2.054;2023-06-22T13:49:54;5.13;;;2.85;;
77022;SDS011;65952;51.440;-2.054;2023-06-22T13:52:19;6.75;;;2.90;;
77022;SDS011;65952;51.440;-2.054;2023-06-22T13:54:45;5.55;;;2.80;;
77022;SDS011;65952;51.440;-2.054;2023-06-22T13:57:10;6.03;;;2.92;;
77022;SDS011;65952;51.440;-2.054;2023-06-22T13:59:35;5.32;;;2.78;;
77022;SDS011;65952;51.440;-2.054;2023-06-22T14:02:01;4.93;;;2.47;;
77022;SDS011;65952;51.440;-2.054;2023-06-22T14:04:26;5.30;;;2.70;;
77022;SDS011;65952;51.440;-2.054;2023-06-22T14:06:53;6.55;;;2.90;;
77022;SDS011;65952;51.440;-2.054;2023-06-22T14:09:19;4.70;;;2.63;;
77022;SDS011;65952;51.440;-2.054;2023-06-22T14:11:44;4.93;;;2.60;;
77022;SDS011;65952;51.440;-2.054;2023-06-22T14:14:10;6.75;;;2.50;;
77022;SDS011;65952;51.440;-2.054;2023-06-22T14:16:35;4.30;;;2.58;;
77022;SDS011;65952;51.440;-2.054;2023-06-22T14:19:00;6.15;;;2.67;;
77022;SDS011;65952;51.440;-2.054;2023-06-22T14:21:26;4.72;;;2.55;;
77022;SDS011;65952;51.440;-2.054;2023-06-22T14:23:51;5.55;;;2.70;;
77022;SDS011;65952;51.440;-2.054;2023-06-22T14:26:17;5.03;;;2.70;;
77022;SDS011;65952;51.440;-2.054;2023-06-22T14:28:43;4.72;;;2.70;;
77022;SDS011;65952;51.440;-2.054;2023-06-22T14:31:13;4.72;;;2.72;;
77022;SDS011;65952;51.440;-2.054;2023-06-22T14:33:39;4.55;;;2.50;;
77022;SDS011;65952;51.440;-2.054;2023-06-22T14:36:05;6.15;;;2.70;;
77022;SDS011;65952;51.440;-2.054;2023-06-22T14:38:30;5.82;;;2.85;;
77022;SDS011;65952;51.440;-2.054;2023-06-22T14:40:56;4.70;;;2.67;;
77022;SDS011;65952;51.440;-2.054;2023-06-22T14:43:21;5.25;;;2.70;;
77022;SDS011;65952;51.440;-2.054;2023-06-22T14:45:46;5.70;;;2.50;;
77022;SDS011;65952;51.440;-2.054;2023-06-22T14:48:12;5.50;;;2.63;;
77022;SDS011;65952;51.440;-2.054;2023-06-22T14:50:37;7.03;;;2.78;;
77022;SDS011;65952;51.440;-2.054;2023-06-22T14:53:03;4.80;;;2.63;;
77022;SDS011;65952;51.440;-2.054;2023-06-22T14:55:28;4.78;;;2.80;;
77022;SDS011;65952;51.440;-2.054;2023-06-22T14:57:53;5.15;;;2.92;;
77022;SDS011;65952;51.440;-2.054;2023-06-22T15:00:19;5.20;;;2.72;;
77022;SDS011;65952;51.440;-2.054;2023-06-22T15:02:44;6.35;;;2.80;;
77022;SDS011;65952;51.440;-2.054;2023-06-22T15:05:10;5.32;;;2.67;;
77022;SDS011;65952;51.440;-2.054;2023-06-22T15:07:35;5.97;;;3.08;;
77022;SDS011;65952;51.440;-2.054;2023-06-22T15:10:01;4.30;;;2.60;;
77022;SDS011;65952;51.440;-2.054;2023-06-22T15:12:26;6.97;;;3.05;;